createdAt,value
2023-04-26T00:01:30.822Z,19.00
2023-04-26T00:03:57.734Z,19.00
2023-04-26T00:06:24.789Z,19.00
2023-04-26T00:08:51.614Z,19.00
2023-04-26T00:11:18.595Z,19.00
2023-04-26T00:13:45.240Z,19.00
2023-04-26T00:16:13.798Z,19.00
2023-04-26T00:18:40.438Z,19.00
2023-04-26T00:21:07.021Z,19.00
2023-04-26T00:23:33.671Z,19.00
2023-04-26T00:26:00.243Z,19.00
2023-04-26T00:28:28.524Z,19.10
2023-04-26T00:30:57.672Z,19.00
2023-04-26T00:33:24.684Z,19.00
2023-04-26T00:35:51.483Z,19.10
2023-04-26T00:38:18.461Z,19.10
2023-04-26T00:40:45.043Z,19.10
2023-04-26T00:43:11.696Z,19.10
2023-04-26T00:45:38.994Z,19.10
2023-04-26T00:48:06.191Z,19.10
2023-04-26T00:50:33.228Z,19.10
2023-04-26T00:53:00.804Z,19.10
2023-04-26T00:55:27.439Z,19.10
2023-04-26T00:57:55.208Z,19.10
2023-04-26T01:00:21.916Z,19.10
2023-04-26T01:02:48.721Z,19.10
2023-04-26T01:05:15.468Z,19.10
2023-04-26T01:07:42.171Z,19.10
2023-04-26T01:10:09.909Z,19.10
2023-04-26T01:12:37.996Z,19.10
2023-04-26T01:15:06.058Z,19.10
2023-04-26T01:17:32.836Z,19.10
2023-04-26T01:19:59.549Z,19.10
2023-04-26T01:22:26.411Z,19.10
2023-04-26T01:25:12.985Z,19.10
2023-04-26T01:27:40.033Z,19.10
2023-04-26T01:30:08.349Z,19.10
2023-04-26T01:32:35.283Z,19.10
2023-04-26T01:35:02.182Z,19.10
2023-04-26T01:37:28.781Z,19.10
2023-04-26T01:39:55.710Z,19.10
2023-04-26T01:42:22.348Z,19.10
2023-04-26T01:44:48.967Z,19.10
2023-04-26T01:47:15.739Z,19.10
2023-04-26T01:49:42.370Z,19.10
2023-04-26T01:52:09.053Z,19.10
2023-04-26T01:54:35.735Z,19.10
2023-04-26T01:57:02.899Z,19.10
2023-04-26T01:59:29.666Z,19.10
2023-04-26T02:01:56.324Z,19.10
2023-04-26T02:04:24.208Z,19.10
2023-04-26T02:06:50.841Z,19.10
2023-04-26T02:09:18.227Z,19.10
2023-04-26T02:11:44.877Z,19.10
2023-04-26T02:14:11.964Z,19.10
2023-04-26T02:16:40.262Z,19.10
2023-04-26T02:19:10.752Z,19.10
2023-04-26T02:21:57.869Z,19.10
2023-04-26T02:24:25.780Z,19.10
2023-04-26T02:26:54.326Z,19.10
2023-04-26T02:29:29.470Z,19.10
2023-04-26T02:32:02.887Z,19.10
2023-04-26T02:34:29.621Z,19.10
2023-04-26T02:40:37.133Z,19.10
2023-04-26T02:43:03.754Z,19.10
2023-04-26T02:45:30.529Z,19.10
2023-04-26T02:47:57.260Z,19.10
2023-04-26T02:50:23.906Z,19.10
2023-04-26T02:52:50.484Z,19.10
2023-04-26T02:55:17.304Z,19.10
2023-04-26T02:57:43.911Z,19.00
2023-04-26T03:00:11.850Z,19.10
2023-04-26T03:02:38.659Z,19.10
2023-04-26T03:05:05.594Z,19.10
2023-04-26T03:07:32.957Z,19.10
2023-04-26T03:10:00.288Z,19.10
2023-04-26T03:12:26.904Z,19.10
2023-04-26T03:14:53.480Z,19.10
2023-04-26T03:17:20.068Z,19.10
2023-04-26T03:19:46.593Z,19.10
2023-04-26T03:22:16.045Z,19.20
2023-04-26T03:24:43.796Z,19.10
2023-04-26T03:27:10.497Z,19.20
2023-04-26T03:29:37.553Z,19.10
2023-04-26T03:32:04.450Z,19.20
2023-04-26T03:34:31.345Z,19.20
2023-04-26T03:36:57.949Z,19.20
2023-04-26T03:39:24.638Z,19.20
2023-04-26T03:41:51.217Z,19.10
2023-04-26T03:44:17.834Z,19.10
2023-04-26T03:46:44.440Z,19.20
2023-04-26T03:49:11.032Z,19.20
2023-04-26T03:51:37.574Z,19.20
2023-04-26T03:54:04.738Z,19.20
2023-04-26T03:56:31.428Z,19.20
2023-04-26T03:58:57.967Z,19.20
2023-04-26T04:01:24.643Z,19.10
2023-04-26T04:03:51.358Z,19.10
2023-04-26T04:06:18.056Z,19.20
2023-04-26T04:08:44.629Z,19.20
2023-04-26T04:11:11.273Z,19.10
2023-04-26T04:13:37.881Z,19.10
2023-04-26T04:16:04.854Z,19.20
2023-04-26T04:18:31.508Z,19.20
2023-04-26T04:20:58.153Z,19.20
2023-04-26T04:23:24.972Z,19.20
2023-04-26T04:25:52.239Z,19.20
2023-04-26T04:28:18.826Z,19.20
2023-04-26T04:30:46.366Z,18.00
2023-04-26T04:35:42.131Z,15.90
2023-04-26T04:38:09.113Z,15.80
2023-04-26T04:40:35.710Z,15.30
2023-04-26T04:52:53.376Z,16.90
2023-04-26T04:55:20.093Z,17.20
2023-04-26T04:57:46.721Z,17.40
2023-04-26T05:00:14.138Z,17.60
2023-04-26T05:02:41.198Z,17.70
2023-04-26T05:05:08.465Z,17.80
2023-04-26T05:07:35.230Z,17.90
2023-04-26T05:10:02.115Z,18.10
2023-04-26T05:12:28.686Z,18.00
2023-04-26T05:14:55.358Z,18.10
2023-04-26T05:17:21.964Z,18.10
2023-04-26T05:19:51.702Z,18.10
2023-04-26T05:22:20.983Z,18.20
2023-04-26T05:24:48.114Z,18.20
2023-04-26T05:27:14.795Z,18.20
2023-04-26T05:29:41.956Z,18.20
2023-04-26T05:32:08.921Z,18.20
2023-04-26T05:34:36.614Z,18.30
2023-04-26T05:37:03.556Z,18.30
2023-04-26T05:39:30.679Z,18.30
2023-04-26T05:41:57.403Z,18.30
2023-04-26T05:44:24.528Z,18.30
2023-04-26T05:46:51.401Z,18.40
2023-04-26T05:49:18.057Z,18.40
2023-04-26T05:51:44.669Z,18.40
2023-04-26T05:54:11.285Z,18.40
2023-04-26T05:56:37.937Z,18.40
2023-04-26T05:59:04.599Z,18.40
2023-04-26T06:01:31.599Z,18.40
2023-04-26T06:04:00.629Z,18.40
2023-04-26T06:06:28.237Z,18.50
2023-04-26T06:08:55.458Z,18.40
2023-04-26T06:11:22.203Z,18.50
2023-04-26T06:13:48.786Z,18.50
2023-04-26T06:16:15.966Z,18.50
2023-04-26T06:18:43.145Z,18.50
2023-04-26T06:21:09.847Z,18.50
2023-04-26T06:23:36.434Z,18.50
2023-04-26T06:26:02.981Z,18.50
2023-04-26T06:28:29.516Z,18.50
2023-04-26T06:30:56.118Z,18.50
2023-04-26T06:33:22.738Z,18.50
2023-04-26T06:35:49.369Z,18.50
2023-04-26T06:38:15.983Z,18.50
2023-04-26T06:40:42.976Z,18.50
2023-04-26T06:43:09.572Z,18.50
2023-04-26T06:45:36.933Z,18.50
2023-04-26T06:48:04.862Z,18.60
2023-04-26T06:50:31.567Z,18.60
2023-04-26T06:52:58.182Z,18.60
2023-04-26T06:55:24.952Z,18.60
2023-04-26T06:57:51.609Z,18.50
2023-04-26T07:00:19.010Z,18.60
2023-04-26T07:02:45.944Z,18.60
2023-04-26T07:05:13.093Z,18.60
2023-04-26T07:07:39.764Z,18.60
2023-04-26T07:10:07.272Z,18.60
2023-04-26T07:12:33.849Z,18.60
2023-04-26T07:15:01.336Z,18.60
2023-04-26T07:17:28.195Z,18.60
2023-04-26T07:19:56.158Z,18.60
2023-04-26T07:22:23.466Z,18.60
2023-04-26T07:24:50.169Z,18.60
2023-04-26T07:27:16.999Z,18.60
2023-04-26T07:29:43.609Z,18.70
2023-04-26T07:32:10.359Z,18.60
2023-04-26T07:34:37.547Z,18.60
2023-04-26T07:37:04.500Z,18.60
2023-04-26T07:39:31.367Z,18.60
2023-04-26T07:41:57.958Z,18.70
2023-04-26T07:44:24.528Z,18.70
2023-04-26T07:46:51.555Z,18.70
2023-04-26T07:49:18.114Z,18.60
2023-04-26T07:51:45.563Z,18.70
2023-04-26T07:54:12.204Z,18.70
2023-04-26T07:56:38.805Z,18.70
2023-04-26T07:59:05.351Z,18.60
2023-04-26T08:01:31.927Z,18.60
2023-04-26T08:03:59.206Z,18.70
2023-04-26T08:06:26.833Z,18.60
2023-04-26T08:08:53.952Z,18.70
2023-04-26T08:11:20.681Z,18.60
2023-04-26T08:13:47.474Z,18.70
2023-04-26T08:16:14.414Z,18.70
2023-04-26T08:18:41.046Z,18.70
2023-04-26T08:21:07.734Z,18.70
2023-04-26T08:23:38.172Z,18.70
2023-04-26T08:26:04.783Z,18.70
2023-04-26T08:28:31.409Z,18.70
2023-04-26T08:30:58.193Z,18.70
2023-04-26T08:33:25.526Z,18.70
2023-04-26T08:35:52.435Z,18.70
2023-04-26T08:38:19.168Z,18.70
2023-04-26T08:40:47.021Z,18.70
2023-04-26T08:43:16.368Z,18.70
2023-04-26T08:45:49.471Z,18.70
2023-04-26T08:48:18.195Z,18.70
2023-04-26T08:50:46.670Z,18.70
2023-04-26T08:53:17.026Z,18.70
2023-04-26T08:55:50.826Z,18.70
2023-04-26T08:58:18.636Z,18.70
2023-04-26T09:00:46.172Z,18.70
2023-04-26T09:03:13.116Z,18.70
2023-04-26T09:05:40.749Z,18.70
2023-04-26T09:08:08.468Z,18.70
2023-04-26T09:10:35.398Z,18.70
2023-04-26T09:13:01.999Z,18.70
2023-04-26T09:15:28.626Z,18.70
2023-04-26T09:17:55.332Z,18.70
2023-04-26T09:20:31.228Z,18.70
2023-04-26T09:23:08.536Z,18.70
2023-04-26T09:25:35.670Z,18.70
2023-04-26T09:28:03.947Z,18.80
2023-04-26T09:30:31.247Z,18.80
2023-04-26T09:33:00.296Z,18.80
2023-04-26T09:35:34.983Z,18.80
2023-04-26T09:38:11.057Z,18.70
2023-04-26T09:40:46.272Z,18.80
2023-04-26T09:43:15.447Z,18.70
2023-04-26T09:45:56.099Z,18.80
2023-04-26T09:48:28.798Z,18.80
2023-04-26T09:50:57.514Z,18.80
2023-04-26T09:53:27.421Z,18.80
2023-04-26T09:55:55.413Z,18.70
2023-04-26T09:58:23.284Z,18.80
2023-04-26T10:00:52.122Z,18.70
2023-04-26T10:03:20.806Z,18.70
2023-04-26T10:05:47.835Z,18.70
2023-04-26T10:08:14.738Z,18.70
2023-04-26T10:10:42.658Z,18.80
2023-04-26T10:13:10.976Z,18.70
2023-04-26T10:15:39.787Z,18.70
2023-04-26T10:18:06.873Z,18.80
2023-04-26T10:20:36.136Z,18.80
2023-04-26T10:23:06.252Z,18.70
2023-04-26T10:25:44.146Z,18.70
2023-04-26T10:28:11.457Z,18.70
2023-04-26T10:30:57.277Z,18.80
2023-04-26T10:33:25.887Z,18.70
2023-04-26T10:36:08.564Z,18.80
2023-04-26T10:38:37.031Z,18.80
2023-04-26T10:41:48.676Z,18.70
2023-04-26T10:44:52.250Z,18.70
2023-04-26T10:47:31.468Z,18.70
2023-04-26T10:50:09.700Z,18.70
2023-04-26T10:53:03.382Z,18.80
2023-04-26T10:55:43.034Z,18.80
2023-04-26T10:58:33.369Z,18.80
2023-04-26T11:01:16.891Z,18.70
2023-04-26T11:04:04.264Z,18.70
2023-04-26T11:06:47.647Z,18.80
2023-04-26T11:09:40.819Z,18.70
2023-04-26T11:12:12.888Z,18.80
2023-04-26T11:14:41.801Z,18.80
2023-04-26T11:17:09.721Z,18.80
2023-04-26T11:19:36.343Z,18.80
2023-04-26T11:22:03.724Z,18.80
2023-04-26T11:24:31.386Z,18.80
2023-04-26T11:26:58.258Z,18.80
2023-04-26T11:29:25.805Z,18.80
2023-04-26T11:31:57.602Z,18.80
2023-04-26T11:34:33.322Z,18.80
2023-04-26T11:37:05.525Z,18.80
2023-04-26T11:39:33.002Z,18.80
2023-04-26T11:42:10.135Z,18.80
2023-04-26T11:44:37.944Z,18.80
2023-04-26T11:47:06.551Z,18.80
2023-04-26T11:49:36.005Z,18.80
2023-04-26T11:52:04.760Z,18.80
2023-04-26T11:54:33.400Z,18.80
2023-04-26T11:57:00.938Z,18.80
2023-04-26T11:59:30.922Z,18.80
2023-04-26T12:01:58.358Z,18.80
2023-04-26T12:04:30.421Z,18.80
2023-04-26T12:06:58.310Z,18.80
2023-04-26T12:09:29.650Z,18.80
2023-04-26T12:12:00.929Z,18.80
2023-04-26T12:14:47.794Z,18.80
2023-04-26T12:17:15.641Z,18.80
2023-04-26T12:19:42.280Z,18.80
2023-04-26T12:22:09.318Z,18.80
2023-04-26T12:24:37.374Z,18.80
2023-04-26T12:27:06.560Z,18.80
2023-04-26T12:29:33.914Z,18.80
2023-04-26T12:32:01.240Z,18.90
2023-04-26T12:34:28.097Z,18.80
2023-04-26T12:36:55.132Z,18.90
2023-04-26T12:39:21.764Z,18.90
2023-04-26T12:41:49.030Z,18.90
2023-04-26T12:44:15.609Z,18.90
2023-04-26T12:46:42.495Z,18.90
2023-04-26T12:49:09.209Z,18.90
2023-04-26T12:51:35.885Z,18.90
2023-04-26T12:54:02.780Z,18.90
2023-04-26T12:56:29.995Z,18.90
2023-04-26T12:58:56.813Z,18.90
2023-04-26T13:01:23.419Z,18.90
2023-04-26T13:03:50.466Z,18.90
2023-04-26T13:06:17.879Z,18.90
2023-04-26T13:08:44.514Z,18.90
2023-04-26T13:11:11.086Z,18.90
2023-04-26T13:13:43.482Z,18.90
2023-04-26T13:16:12.253Z,18.90
2023-04-26T13:18:39.635Z,18.90
2023-04-26T13:21:06.279Z,18.90
2023-04-26T13:23:32.906Z,18.90
2023-04-26T13:25:59.537Z,18.90
2023-04-26T13:28:26.160Z,18.90
2023-04-26T13:30:52.937Z,18.90
2023-04-26T13:33:21.333Z,18.90
2023-04-26T13:35:48.464Z,18.90
2023-04-26T13:38:15.950Z,18.90
2023-04-26T13:40:43.158Z,18.90
2023-04-26T13:43:09.710Z,18.90
2023-04-26T13:45:36.572Z,18.90
2023-04-26T13:48:03.245Z,18.90
2023-04-26T13:50:30.051Z,18.90
2023-04-26T13:52:56.883Z,18.90
2023-04-26T13:55:23.694Z,18.90
2023-04-26T13:57:50.306Z,18.90
2023-04-26T14:00:17.435Z,18.90
2023-04-26T14:02:44.259Z,18.90
2023-04-26T14:05:11.084Z,18.90
2023-04-26T14:07:37.789Z,18.90
2023-04-26T14:10:04.690Z,18.90
2023-04-26T14:12:31.703Z,18.90
2023-04-26T14:14:58.260Z,18.90
2023-04-26T14:17:25.670Z,18.90
2023-04-26T14:19:54.656Z,18.90
2023-04-26T14:22:21.597Z,18.90
2023-04-26T14:24:48.830Z,18.90
2023-04-26T14:27:15.397Z,18.90
2023-04-26T14:29:41.935Z,18.90
2023-04-26T14:32:08.640Z,18.90
2023-04-26T14:34:39.786Z,18.90
2023-04-26T14:37:06.980Z,18.90
2023-04-26T14:39:33.724Z,18.90
2023-04-26T14:42:00.551Z,18.90
2023-04-26T14:44:27.421Z,18.90
2023-04-26T14:46:54.082Z,18.90
2023-04-26T14:49:20.849Z,19.00
2023-04-26T14:51:47.602Z,18.90
2023-04-26T14:54:15.276Z,18.90
2023-04-26T14:56:42.154Z,19.00
2023-04-26T14:59:08.689Z,19.00
2023-04-26T15:01:35.496Z,19.00
2023-04-26T15:04:02.204Z,19.00
2023-04-26T15:06:30.736Z,19.00
2023-04-26T15:08:57.427Z,19.00
2023-04-26T15:11:23.994Z,19.00
2023-04-26T15:13:50.549Z,19.00
2023-04-26T15:16:17.397Z,19.00
2023-04-26T15:18:44.170Z,19.00
2023-04-26T15:21:17.065Z,19.00
2023-04-26T15:23:43.694Z,19.00
2023-04-26T15:26:10.338Z,19.00
2023-04-26T15:28:37.156Z,19.00
2023-04-26T15:31:04.767Z,19.00
2023-04-26T15:33:32.382Z,19.00
2023-04-26T15:35:58.975Z,19.00
2023-04-26T15:38:25.926Z,19.00
2023-04-26T15:40:53.676Z,19.00
2023-04-26T15:43:20.444Z,19.00
2023-04-26T15:45:48.874Z,19.10
2023-04-26T15:48:15.846Z,19.00
2023-04-26T15:50:42.406Z,19.00
2023-04-26T15:53:09.153Z,19.10
2023-04-26T15:55:35.824Z,19.10
2023-04-26T15:58:02.446Z,19.10
2023-04-26T16:00:29.119Z,19.10
2023-04-26T16:02:55.849Z,19.10
2023-04-26T16:05:22.720Z,19.10
2023-04-26T16:07:49.332Z,19.10
2023-04-26T16:10:16.324Z,19.10
2023-04-26T16:12:44.404Z,19.10
2023-04-26T16:15:11.794Z,19.10
2023-04-26T16:17:39.287Z,19.10
2023-04-26T16:20:08.016Z,19.10
2023-04-26T16:22:36.072Z,19.10
2023-04-26T16:25:06.562Z,19.10
2023-04-26T16:27:33.741Z,19.10
2023-04-26T16:30:00.425Z,19.10
2023-04-26T16:32:27.186Z,19.10
2023-04-26T16:34:53.803Z,19.10
2023-04-26T16:37:20.728Z,19.10
2023-04-26T16:39:47.331Z,19.20
2023-04-26T16:42:14.019Z,19.20
2023-04-26T16:44:40.762Z,19.20
2023-04-26T16:47:07.403Z,19.20
2023-04-26T16:49:34.282Z,19.20
2023-04-26T16:52:01.096Z,19.20
2023-04-26T16:54:28.361Z,19.20
2023-04-26T16:56:54.952Z,19.20
2023-04-26T16:59:22.112Z,19.20
2023-04-26T17:01:48.782Z,19.20
2023-04-26T17:04:15.537Z,19.20
2023-04-26T17:06:42.218Z,19.20
2023-04-26T17:09:08.914Z,19.30
2023-04-26T17:11:37.226Z,19.20
2023-04-26T17:14:04.398Z,19.30
2023-04-26T17:16:31.184Z,19.30
2023-04-26T17:18:58.388Z,19.30
2023-04-26T17:21:25.320Z,19.30
2023-04-26T17:23:52.549Z,19.30
2023-04-26T17:26:19.255Z,19.30
2023-04-26T17:28:46.365Z,19.30
2023-04-26T17:31:13.030Z,19.30
2023-04-26T17:33:39.665Z,19.30
2023-04-26T17:36:06.520Z,19.30
2023-04-26T17:38:33.178Z,19.30
2023-04-26T17:40:59.950Z,19.30
2023-04-26T17:43:26.516Z,19.20
2023-04-26T17:45:53.281Z,19.30
2023-04-26T17:48:20.105Z,19.30
2023-04-26T17:50:51.033Z,19.30
2023-04-26T17:53:17.932Z,19.30
2023-04-26T17:55:44.995Z,19.00
2023-04-26T17:58:11.915Z,18.50
2023-04-26T18:00:38.596Z,18.20
2023-04-26T18:03:06.526Z,18.00
2023-04-26T18:05:33.403Z,17.90
2023-04-26T18:08:00.022Z,18.10
2023-04-26T18:10:26.656Z,18.40
2023-04-26T18:12:53.246Z,18.60
2023-04-26T18:15:20.030Z,18.80
2023-04-26T18:17:46.688Z,18.90
2023-04-26T18:20:13.391Z,19.00
2023-04-26T18:22:40.388Z,19.00
2023-04-26T18:25:07.560Z,19.10
2023-04-26T18:27:34.509Z,19.10
2023-04-26T18:30:01.328Z,19.10
2023-04-26T18:32:28.006Z,19.10
2023-04-26T18:34:54.668Z,18.80
2023-04-26T18:37:21.461Z,18.40
2023-04-26T18:39:48.718Z,18.70
2023-04-26T18:42:15.786Z,18.80
2023-04-26T18:44:42.396Z,18.90
2023-04-26T18:47:08.986Z,18.90
2023-04-26T18:49:35.645Z,19.00
2023-04-26T18:52:02.286Z,19.10
2023-04-26T18:54:30.919Z,19.20
2023-04-26T18:56:57.509Z,19.20
2023-04-26T18:59:24.142Z,19.20
2023-04-26T19:01:50.750Z,19.20
2023-04-26T19:04:17.703Z,19.30
2023-04-26T19:06:44.523Z,19.30
2023-04-26T19:09:11.748Z,19.40
2023-04-26T19:11:38.676Z,19.40
2023-04-26T19:14:05.706Z,19.30
2023-04-26T19:16:32.442Z,19.30
2023-04-26T19:18:59.193Z,19.40
2023-04-26T19:21:26.644Z,19.40
2023-04-26T19:23:53.350Z,19.30
2023-04-26T19:26:19.995Z,19.40
2023-04-26T19:28:46.678Z,19.40
2023-04-26T19:31:13.578Z,19.40
2023-04-26T19:33:40.606Z,19.40
2023-04-26T19:36:09.433Z,19.40
2023-04-26T19:38:36.183Z,19.40
2023-04-26T19:41:02.846Z,19.40
2023-04-26T19:43:29.503Z,19.40
2023-04-26T19:45:56.192Z,19.50
2023-04-26T19:48:22.874Z,19.40
2023-04-26T19:50:49.771Z,19.40
2023-04-26T19:53:16.582Z,19.30
2023-04-26T19:55:43.507Z,19.30
2023-04-26T19:58:11.025Z,19.30
2023-04-26T20:00:39.712Z,19.20
2023-04-26T20:03:06.878Z,19.30
2023-04-26T20:05:33.880Z,19.20
2023-04-26T20:08:01.390Z,19.20
2023-04-26T20:10:32.289Z,19.30
2023-04-26T20:13:00.182Z,19.40
2023-04-26T20:15:27.751Z,19.30
2023-04-26T20:17:54.473Z,19.30
2023-04-26T20:20:21.315Z,19.30
2023-04-26T20:22:49.040Z,19.30
2023-04-26T20:25:15.878Z,19.20
2023-04-26T20:27:42.647Z,19.20
2023-04-26T20:30:09.762Z,19.20
2023-04-26T20:32:36.489Z,19.20
2023-04-26T20:35:03.155Z,19.20
2023-04-26T20:37:29.941Z,19.20
2023-04-26T20:39:57.594Z,19.20
2023-04-26T20:42:24.981Z,19.20
2023-04-26T20:44:52.153Z,19.20
2023-04-26T20:47:19.188Z,19.20
2023-04-26T20:49:45.838Z,19.20
2023-04-26T20:52:12.751Z,19.20
2023-04-26T20:54:39.417Z,19.20
2023-04-26T20:57:06.390Z,19.20
2023-04-26T20:59:33.126Z,19.20
2023-04-26T21:02:02.106Z,19.20
2023-04-26T21:04:28.937Z,19.20
2023-04-26T21:06:55.795Z,19.20
2023-04-26T21:09:22.435Z,19.20
2023-04-26T21:11:49.006Z,19.20
2023-04-26T21:14:15.582Z,19.20
2023-04-26T21:16:42.312Z,19.20
2023-04-26T21:19:09.682Z,19.20
2023-04-26T21:21:36.550Z,19.20
2023-04-26T21:24:03.954Z,19.20
2023-04-26T21:26:30.614Z,19.20
2023-04-26T21:28:57.224Z,19.20
2023-04-26T21:31:23.913Z,19.20
2023-04-26T21:33:50.782Z,19.20
2023-04-26T21:36:17.520Z,19.20
2023-04-26T21:38:44.212Z,19.20
2023-04-26T21:41:10.809Z,19.20
2023-04-26T21:43:37.384Z,19.20
2023-04-26T21:46:04.074Z,19.20
2023-04-26T21:48:30.753Z,19.20
2023-04-26T21:50:57.472Z,19.20
2023-04-26T21:53:24.078Z,19.20
2023-04-26T21:55:52.596Z,19.20
2023-04-26T21:58:20.476Z,19.20
2023-04-26T22:00:47.141Z,19.20
2023-04-26T22:03:14.378Z,19.20
2023-04-26T22:05:41.113Z,19.20
2023-04-26T22:08:07.796Z,19.20
2023-04-26T22:10:34.642Z,19.20
2023-04-26T22:13:01.423Z,19.20
2023-04-26T22:15:28.370Z,19.20
2023-04-26T22:17:55.038Z,19.20
2023-04-26T22:20:21.712Z,19.20
2023-04-26T22:22:48.516Z,19.20
2023-04-26T22:25:15.162Z,19.20
2023-04-26T22:27:41.774Z,19.20
2023-04-26T22:30:22.895Z,19.20
2023-04-26T22:32:52.771Z,19.20
2023-04-26T22:35:20.396Z,19.20
2023-04-26T22:37:47.371Z,19.20
2023-04-26T22:40:15.331Z,19.20
2023-04-26T22:42:42.755Z,19.20
2023-04-26T22:45:10.651Z,19.20
2023-04-26T22:47:37.595Z,19.20
2023-04-26T22:50:05.221Z,19.20
2023-04-26T22:52:32.407Z,19.20
2023-04-26T22:55:02.394Z,19.20
2023-04-26T22:57:30.010Z,19.20
2023-04-26T22:59:56.869Z,19.20
2023-04-26T23:02:23.761Z,19.20
2023-04-26T23:04:50.810Z,19.20
2023-04-26T23:07:17.398Z,19.20
2023-04-26T23:09:44.077Z,19.20
2023-04-26T23:12:10.812Z,19.20
2023-04-26T23:14:37.580Z,19.20
2023-04-26T23:17:04.277Z,19.20
2023-04-26T23:19:31.401Z,19.20
2023-04-26T23:21:58.020Z,19.20
2023-04-26T23:24:24.630Z,19.20
2023-04-26T23:26:51.256Z,19.20
2023-04-26T23:29:17.887Z,19.20
2023-04-26T23:31:44.579Z,19.20
2023-04-26T23:34:11.302Z,19.20
2023-04-26T23:36:37.963Z,19.20
2023-04-26T23:39:04.546Z,19.20
2023-04-26T23:41:31.089Z,19.20
2023-04-26T23:43:57.722Z,19.20
2023-04-26T23:46:24.473Z,19.20
2023-04-26T23:48:51.191Z,19.20
2023-04-26T23:51:17.771Z,19.20
2023-04-26T23:53:44.910Z,19.20
2023-04-26T23:56:11.690Z,19.20
2023-04-26T23:58:38.357Z,19.20
